sensor_id;sensor_type;location;lat;lon;timestamp;temperature;humidity
16198;DHT22;8206;51.440;6.914;2022-09-17T00:00:36;10.80;99.90
16198;DHT22;8206;51.440;6.914;2022-09-17T00:03:04;10.70;99.90
16198;DHT22;8206;51.440;6.914;2022-09-17T00:05:31;10.70;99.90
16198;DHT22;8206;51.440;6.914;2022-09-17T00:07:58;10.70;1.00
16198;DHT22;8206;51.440;6.914;2022-09-17T00:10:24;10.70;1.00
16198;DHT22;8206;51.440;6.914;2022-09-17T00:12:51;10.70;99.90
16198;DHT22;8206;51.440;6.914;2022-09-17T00:15:18;10.70;99.90
16198;DHT22;8206;51.440;6.914;2022-09-17T00:17:46;10.80;99.90
16198;DHT22;8206;51.440;6.914;2022-09-17T00:20:13;10.70;99.90
16198;DHT22;8206;51.440;6.914;2022-09-17T00:22:39;10.70;99.90
16198;DHT22;8206;51.440;6.914;2022-09-17T00:25:07;10.70;1.00
16198;DHT22;8206;51.440;6.914;2022-09-17T00:27:34;10.80;1.00
16198;DHT22;8206;51.440;6.914;2022-09-17T00:30:01;10.80;1.00
16198;DHT22;8206;51.440;6.914;2022-09-17T00:32:28;10.70;99.90
16198;DHT22;8206;51.440;6.914;2022-09-17T00:34:56;10.70;1.00
16198;DHT22;8206;51.440;6.914;2022-09-17T00:37:23;10.70;1.00
16198;DHT22;8206;51.440;6.914;2022-09-17T00:39:50;10.70;1.00
16198;DHT22;8206;51.440;6.914;2022-09-17T00:42:18;10.70;1.00
16198;DHT22;8206;51.440;6.914;2022-09-17T00:44:47;10.70;1.00
16198;DHT22;8206;51.440;6.914;2022-09-17T00:47:19;10.70;1.00
16198;DHT22;8206;51.440;6.914;2022-09-17T00:49:47;10.60;1.00
16198;DHT22;8206;51.440;6.914;2022-09-17T00:52:18;10.70;99.90
16198;DHT22;8206;51.440;6.914;2022-09-17T00:54:53;10.60;99.90
16198;DHT22;8206;51.440;6.914;2022-09-17T00:57:22;10.60;99.90
16198;DHT22;8206;51.440;6.914;2022-09-17T00:59:48;10.60;51.40
16198;DHT22;8206;51.440;6.914;2022-09-17T01:02:16;10.60;99.90
16198;DHT22;8206;51.440;6.914;2022-09-17T01:04:43;10.60;1.00
16198;DHT22;8206;51.440;6.914;2022-09-17T01:07:18;10.60;1.00
16198;DHT22;8206;51.440;6.914;2022-09-17T01:09:51;10.60;1.00
16198;DHT22;8206;51.440;6.914;2022-09-17T01:12:42;10.50;1.00
16198;DHT22;8206;51.440;6.914;2022-09-17T01:15:23;10.40;99.90
16198;DHT22;8206;51.440;6.914;2022-09-17T01:18:05;10.30;1.00
16198;DHT22;8206;51.440;6.914;2022-09-17T01:21:09;10.10;99.90
16198;DHT22;8206;51.440;6.914;2022-09-17T01:24:09;10.10;99.90
16198;DHT22;8206;51.440;6.914;2022-09-17T01:26:57;10.10;1.00
16198;DHT22;8206;51.440;6.914;2022-09-17T01:29:42;10.10;1.00
16198;DHT22;8206;51.440;6.914;2022-09-17T01:32:19;10.10;1.00
16198;DHT22;8206;51.440;6.914;2022-09-17T01:34:53;10.10;17.40
16198;DHT22;8206;51.440;6.914;2022-09-17T01:37:29;10.00;27.10
16198;DHT22;8206;51.440;6.914;2022-09-17T01:40:03;10.00;49.80
16198;DHT22;8206;51.440;6.914;2022-09-17T01:42:36;10.00;74.80
16198;DHT22;8206;51.440;6.914;2022-09-17T01:45:09;10.00;99.90
16198;DHT22;8206;51.440;6.914;2022-09-17T01:47:41;10.10;99.90
16198;DHT22;8206;51.440;6.914;2022-09-17T01:50:15;10.20;99.90
16198;DHT22;8206;51.440;6.914;2022-09-17T01:52:44;10.30;99.90
16198;DHT22;8206;51.440;6.914;2022-09-17T01:55:15;10.30;99.90
16198;DHT22;8206;51.440;6.914;2022-09-17T01:57:48;10.40;97.60
16198;DHT22;8206;51.440;6.914;2022-09-17T02:00:17;10.40;51.30
16198;DHT22;8206;51.440;6.914;2022-09-17T02:02:49;10.40;11.40
16198;DHT22;8206;51.440;6.914;2022-09-17T02:05:20;10.50;1.00
16198;DHT22;8206;51.440;6.914;2022-09-17T02:07:53;10.50;1.00
16198;DHT22;8206;51.440;6.914;2022-09-17T02:10:23;10.50;1.00
16198;DHT22;8206;51.440;6.914;2022-09-17T02:12:56;10.50;1.00
16198;DHT22;8206;51.440;6.914;2022-09-17T02:15:27;10.50;1.00
16198;DHT22;8206;51.440;6.914;2022-09-17T02:17:59;10.50;99.90
16198;DHT22;8206;51.440;6.914;2022-09-17T02:20:34;10.50;1.00
16198;DHT22;8206;51.440;6.914;2022-09-17T02:23:07;10.50;1.00
16198;DHT22;8206;51.440;6.914;2022-09-17T02:25:39;10.50;99.90
16198;DHT22;8206;51.440;6.914;2022-09-17T02:28:12;10.40;1.00
16198;DHT22;8206;51.440;6.914;2022-09-17T02:30:40;10.30;1.00
16198;DHT22;8206;51.440;6.914;2022-09-17T02:33:11;10.30;99.90
16198;DHT22;8206;51.440;6.914;2022-09-17T02:35:38;10.30;1.00
16198;DHT22;8206;51.440;6.914;2022-09-17T02:38:05;10.30;1.00
16198;DHT22;8206;51.440;6.914;2022-09-17T02:40:37;10.30;99.90
16198;DHT22;8206;51.440;6.914;2022-09-17T02:43:11;10.30;99.90
16198;DHT22;8206;51.440;6.914;2022-09-17T02:45:48;10.30;99.90
16198;DHT22;8206;51.440;6.914;2022-09-17T02:48:41;10.20;1.00
16198;DHT22;8206;51.440;6.914;2022-09-17T02:51:22;10.10;1.00
16198;DHT22;8206;51.440;6.914;2022-09-17T02:53:57;10.00;1.00
16198;DHT22;8206;51.440;6.914;2022-09-17T02:56:35;9.80;1.00
16198;DHT22;8206;51.440;6.914;2022-09-17T02:59:10;9.80;1.00
16198;DHT22;8206;51.440;6.914;2022-09-17T03:01:41;9.70;1.00
16198;DHT22;8206;51.440;6.914;2022-09-17T03:04:14;9.70;18.70
16198;DHT22;8206;51.440;6.914;2022-09-17T03:06:44;9.70;71.00
16198;DHT22;8206;51.440;6.914;2022-09-17T03:09:12;9.70;99.90
16198;DHT22;8206;51.440;6.914;2022-09-17T03:11:39;9.80;99.90
16198;DHT22;8206;51.440;6.914;2022-09-17T03:14:06;9.90;99.90
16198;DHT22;8206;51.440;6.914;2022-09-17T03:16:33;10.00;99.90
16198;DHT22;8206;51.440;6.914;2022-09-17T03:19:00;10.00;99.90
16198;DHT22;8206;51.440;6.914;2022-09-17T03:21:28;10.00;99.90
16198;DHT22;8206;51.440;6.914;2022-09-17T03:23:55;10.10;99.90
16198;DHT22;8206;51.440;6.914;2022-09-17T03:26:24;10.10;52.60
16198;DHT22;8206;51.440;6.914;2022-09-17T03:28:51;10.20;1.00
16198;DHT22;8206;51.440;6.914;2022-09-17T03:31:18;10.20;1.00
16198;DHT22;8206;51.440;6.914;2022-09-17T03:33:45;10.30;1.00
16198;DHT22;8206;51.440;6.914;2022-09-17T03:36:11;10.30;99.90
16198;DHT22;8206;51.440;6.914;2022-09-17T03:38:39;10.30;1.00
16198;DHT22;8206;51.440;6.914;2022-09-17T03:41:06;10.40;1.00
16198;DHT22;8206;51.440;6.914;2022-09-17T03:43:33;10.30;99.90
16198;DHT22;8206;51.440;6.914;2022-09-17T03:46:00;10.30;1.00
16198;DHT22;8206;51.440;6.914;2022-09-17T03:48:27;10.30;1.00
16198;DHT22;8206;51.440;6.914;2022-09-17T03:50:54;10.40;99.90
16198;DHT22;8206;51.440;6.914;2022-09-17T03:53:21;10.40;1.00
16198;DHT22;8206;51.440;6.914;2022-09-17T03:55:49;10.40;1.00
16198;DHT22;8206;51.440;6.914;2022-09-17T03:58:16;10.40;99.40
16198;DHT22;8206;51.440;6.914;2022-09-17T04:00:43;10.40;1.00
16198;DHT22;8206;51.440;6.914;2022-09-17T04:03:10;10.40;99.90
16198;DHT22;8206;51.440;6.914;2022-09-17T04:05:37;10.40;99.90
16198;DHT22;8206;51.440;6.914;2022-09-17T04:08:03;10.40;99.90
16198;DHT22;8206;51.440;6.914;2022-09-17T04:10:30;10.30;99.90
16198;DHT22;8206;51.440;6.914;2022-09-17T04:12:58;10.20;99.90
16198;DHT22;8206;51.440;6.914;2022-09-17T04:15:25;10.20;99.90
16198;DHT22;8206;51.440;6.914;2022-09-17T04:17:54;10.20;99.90
16198;DHT22;8206;51.440;6.914;2022-09-17T04:20:22;10.10;99.90
16198;DHT22;8206;51.440;6.914;2022-09-17T04:22:49;10.20;99.90
16198;DHT22;8206;51.440;6.914;2022-09-17T04:25:16;10.20;99.90
16198;DHT22;8206;51.440;6.914;2022-09-17T04:27:43;10.20;99.90
16198;DHT22;8206;51.440;6.914;2022-09-17T04:30:12;10.30;99.90
16198;DHT22;8206;51.440;6.914;2022-09-17T04:32:39;10.40;99.90
16198;DHT22;8206;51.440;6.914;2022-09-17T04:35:07;10.40;99.90
16198;DHT22;8206;51.440;6.914;2022-09-17T04:37:33;10.40;99.90
16198;DHT22;8206;51.440;6.914;2022-09-17T04:40:01;10.40;1.00
16198;DHT22;8206;51.440;6.914;2022-09-17T04:42:27;10.40;1.00
16198;DHT22;8206;51.440;6.914;2022-09-17T04:44:54;10.50;1.00
16198;DHT22;8206;51.440;6.914;2022-09-17T04:47:23;10.50;1.00
16198;DHT22;8206;51.440;6.914;2022-09-17T04:49:50;10.50;1.00
16198;DHT22;8206;51.440;6.914;2022-09-17T04:52:17;10.50;1.00
16198;DHT22;8206;51.440;6.914;2022-09-17T04:54:44;10.50;1.00
16198;DHT22;8206;51.440;6.914;2022-09-17T04:57:10;10.50;1.00
16198;DHT22;8206;51.440;6.914;2022-09-17T04:59:37;10.50;1.00
16198;DHT22;8206;51.440;6.914;2022-09-17T05:02:04;10.40;1.00
16198;DHT22;8206;51.440;6.914;2022-09-17T05:04:32;10.40;1.00
16198;DHT22;8206;51.440;6.914;2022-09-17T05:06:58;10.20;1.00
16198;DHT22;8206;51.440;6.914;2022-09-17T05:09:25;10.10;1.00
16198;DHT22;8206;51.440;6.914;2022-09-17T05:11:52;10.00;99.90
16198;DHT22;8206;51.440;6.914;2022-09-17T05:14:19;10.00;99.90
16198;DHT22;8206;51.440;6.914;2022-09-17T05:16:45;9.90;1.00
16198;DHT22;8206;51.440;6.914;2022-09-17T05:19:12;9.90;2.90
16198;DHT22;8206;51.440;6.914;2022-09-17T05:21:40;9.90;1.00
16198;DHT22;8206;51.440;6.914;2022-09-17T05:24:07;10.00;1.00
16198;DHT22;8206;51.440;6.914;2022-09-17T05:26:34;10.10;1.00
16198;DHT22;8206;51.440;6.914;2022-09-17T05:29:01;10.20;99.90
16198;DHT22;8206;51.440;6.914;2022-09-17T05:31:27;10.30;1.00
16198;DHT22;8206;51.440;6.914;2022-09-17T05:33:54;10.40;99.90
16198;DHT22;8206;51.440;6.914;2022-09-17T05:36:21;10.50;99.90
16198;DHT22;8206;51.440;6.914;2022-09-17T05:38:49;10.60;1.00
16198;DHT22;8206;51.440;6.914;2022-09-17T05:41:15;10.60;1.00
16198;DHT22;8206;51.440;6.914;2022-09-17T05:43:43;10.70;1.00
16198;DHT22;8206;51.440;6.914;2022-09-17T05:46:09;10.70;99.90
16198;DHT22;8206;51.440;6.914;2022-09-17T05:48:36;10.70;99.90
16198;DHT22;8206;51.440;6.914;2022-09-17T05:51:03;10.80;99.90
16198;DHT22;8206;51.440;6.914;2022-09-17T05:53:30;10.80;99.90
16198;DHT22;8206;51.440;6.914;2022-09-17T05:55:59;10.80;99.90
16198;DHT22;8206;51.440;6.914;2022-09-17T05:58:26;10.80;99.90
16198;DHT22;8206;51.440;6.914;2022-09-17T06:00:53;10.80;99.90
16198;DHT22;8206;51.440;6.914;2022-09-17T06:03:20;10.80;79.00
16198;DHT22;8206;51.440;6.914;2022-09-17T06:05:53;10.70;37.00
16198;DHT22;8206;51.440;6.914;2022-09-17T06:08:20;10.70;16.80
16198;DHT22;8206;51.440;6.914;2022-09-17T06:10:47;10.60;13.50
16198;DHT22;8206;51.440;6.914;2022-09-17T06:13:15;10.60;35.30
16198;DHT22;8206;51.440;6.914;2022-09-17T06:15:42;10.60;1.00
16198;DHT22;8206;51.440;6.914;2022-09-17T06:18:14;10.70;29.00
16198;DHT22;8206;51.440;6.914;2022-09-17T06:20:41;10.70;8.30
16198;DHT22;8206;51.440;6.914;2022-09-17T06:23:07;10.60;1.00
16198;DHT22;8206;51.440;6.914;2022-09-17T06:25:34;10.60;1.00
16198;DHT22;8206;51.440;6.914;2022-09-17T06:28:01;10.60;1.00
16198;DHT22;8206;51.440;6.914;2022-09-17T06:30:29;10.60;1.00
16198;DHT22;8206;51.440;6.914;2022-09-17T06:32:58;10.70;1.00
16198;DHT22;8206;51.440;6.914;2022-09-17T06:35:25;10.60;1.00
16198;DHT22;8206;51.440;6.914;2022-09-17T06:37:52;10.70;1.00
16198;DHT22;8206;51.440;6.914;2022-09-17T06:40:19;10.70;1.00
16198;DHT22;8206;51.440;6.914;2022-09-17T06:42:47;10.70;1.00
16198;DHT22;8206;51.440;6.914;2022-09-17T06:45:14;10.70;1.00
16198;DHT22;8206;51.440;6.914;2022-09-17T06:47:42;10.80;1.00
16198;DHT22;8206;51.440;6.914;2022-09-17T06:50:09;10.90;1.00
16198;DHT22;8206;51.440;6.914;2022-09-17T06:52:36;11.00;1.00
16198;DHT22;8206;51.440;6.914;2022-09-17T06:55:03;11.20;1.00
16198;DHT22;8206;51.440;6.914;2022-09-17T06:57:30;11.50;1.00
16198;DHT22;8206;51.440;6.914;2022-09-17T06:59:57;11.70;1.00
16198;DHT22;8206;51.440;6.914;2022-09-17T07:02:23;11.90;1.00
16198;DHT22;8206;51.440;6.914;2022-09-17T07:04:51;12.10;1.00
16198;DHT22;8206;51.440;6.914;2022-09-17T07:07:19;12.10;1.00
16198;DHT22;8206;51.440;6.914;2022-09-17T07:09:46;12.00;1.00
16198;DHT22;8206;51.440;6.914;2022-09-17T07:12:13;12.00;1.00
16198;DHT22;8206;51.440;6.914;2022-09-17T07:14:39;12.10;1.00
16198;DHT22;8206;51.440;6.914;2022-09-17T07:17:06;12.10;1.00
16198;DHT22;8206;51.440;6.914;2022-09-17T07:19:33;12.20;1.00
16198;DHT22;8206;51.440;6.914;2022-09-17T07:22:01;12.40;1.00
16198;DHT22;8206;51.440;6.914;2022-09-17T07:24:28;12.60;1.00
16198;DHT22;8206;51.440;6.914;2022-09-17T07:26:55;12.70;1.00
16198;DHT22;8206;51.440;6.914;2022-09-17T07:29:22;12.90;1.00
16198;DHT22;8206;51.440;6.914;2022-09-17T07:31:50;13.00;1.00
16198;DHT22;8206;51.440;6.914;2022-09-17T07:34:17;13.10;1.00
16198;DHT22;8206;51.440;6.914;2022-09-17T07:36:44;13.10;1.00
16198;DHT22;8206;51.440;6.914;2022-09-17T07:39:12;12.80;1.00
16198;DHT22;8206;51.440;6.914;2022-09-17T07:41:39;12.60;1.00
16198;DHT22;8206;51.440;6.914;2022-09-17T07:44:06;12.40;1.00
16198;DHT22;8206;51.440;6.914;2022-09-17T07:46:34;12.20;1.00
16198;DHT22;8206;51.440;6.914;2022-09-17T07:49:01;12.00;1.00
16198;DHT22;8206;51.440;6.914;2022-09-17T07:51:28;12.00;1.00
16198;DHT22;8206;51.440;6.914;2022-09-17T07:53:55;12.10;1.00
16198;DHT22;8206;51.440;6.914;2022-09-17T07:56:25;12.30;1.00
16198;DHT22;8206;51.440;6.914;2022-09-17T07:58:53;12.30;1.00
16198;DHT22;8206;51.440;6.914;2022-09-17T08:01:20;12.30;1.00
16198;DHT22;8206;51.440;6.914;2022-09-17T08:03:48;12.30;1.00
16198;DHT22;8206;51.440;6.914;2022-09-17T08:06:17;12.30;1.00
16198;DHT22;8206;51.440;6.914;2022-09-17T08:08:44;12.30;1.00
16198;DHT22;8206;51.440;6.914;2022-09-17T08:11:12;12.40;1.00
16198;DHT22;8206;51.440;6.914;2022-09-17T08:13:41;12.60;1.00
16198;DHT22;8206;51.440;6.914;2022-09-17T08:16:09;12.60;99.90
16198;DHT22;8206;51.440;6.914;2022-09-17T08:18:37;12.60;99.90
16198;DHT22;8206;51.440;6.914;2022-09-17T08:21:05;12.70;99.90
16198;DHT22;8206;51.440;6.914;2022-09-17T08:23:34;12.80;99.90
16198;DHT22;8206;51.440;6.914;2022-09-17T08:26:02;13.10;99.90
16198;DHT22;8206;51.440;6.914;2022-09-17T08:28:30;13.30;99.90
16198;DHT22;8206;51.440;6.914;2022-09-17T08:31:01;13.50;99.90
16198;DHT22;8206;51.440;6.914;2022-09-17T08:33:30;13.60;99.90
16198;DHT22;8206;51.440;6.914;2022-09-17T08:35:57;13.70;99.90
16198;DHT22;8206;51.440;6.914;2022-09-17T08:38:25;14.00;99.90
16198;DHT22;8206;51.440;6.914;2022-09-17T08:41:01;14.00;99.90
16198;DHT22;8206;51.440;6.914;2022-09-17T08:43:30;13.80;99.90
16198;DHT22;8206;51.440;6.914;2022-09-17T08:46:00;13.60;99.90
16198;DHT22;8206;51.440;6.914;2022-09-17T08:48:33;13.60;99.90
16198;DHT22;8206;51.440;6.914;2022-09-17T08:51:01;13.80;99.90
16198;DHT22;8206;51.440;6.914;2022-09-17T08:53:42;13.70;99.90
16198;DHT22;8206;51.440;6.914;2022-09-17T08:56:12;13.80;99.90
16198;DHT22;8206;51.440;6.914;2022-09-17T08:59:03;13.80;99.90
16198;DHT22;8206;51.440;6.914;2022-09-17T09:01:41;13.80;99.90
16198;DHT22;8206;51.440;6.914;2022-09-17T09:07:08;13.90;99.90
16198;DHT22;8206;51.440;6.914;2022-09-17T09:09:40;13.90;99.90
16198;DHT22;8206;51.440;6.914;2022-09-17T09:12:14;13.70;99.90
16198;DHT22;8206;51.440;6.914;2022-09-17T09:14:47;13.60;99.90
16198;DHT22;8206;51.440;6.914;2022-09-17T09:17:21;13.60;99.90
16198;DHT22;8206;51.440;6.914;2022-09-17T09:19:51;13.70;99.90
16198;DHT22;8206;51.440;6.914;2022-09-17T09:22:34;14.00;99.90
16198;DHT22;8206;51.440;6.914;2022-09-17T09:25:17;14.50;99.90
16198;DHT22;8206;51.440;6.914;2022-09-17T09:27:54;14.70;99.90
16198;DHT22;8206;51.440;6.914;2022-09-17T09:30:22;15.00;99.90
16198;DHT22;8206;51.440;6.914;2022-09-17T09:32:56;15.00;99.90
16198;DHT22;8206;51.440;6.914;2022-09-17T09:35:26;14.90;99.90
16198;DHT22;8206;51.440;6.914;2022-09-17T09:37:58;14.90;99.90
16198;DHT22;8206;51.440;6.914;2022-09-17T09:40:35;15.00;99.90
16198;DHT22;8206;51.440;6.914;2022-09-17T09:43:10;15.10;99.90
16198;DHT22;8206;51.440;6.914;2022-09-17T09:45:53;15.10;99.90
16198;DHT22;8206;51.440;6.914;2022-09-17T09:48:32;15.30;99.90
16198;DHT22;8206;51.440;6.914;2022-09-17T09:51:11;15.40;99.90
16198;DHT22;8206;51.440;6.914;2022-09-17T09:53:48;15.50;99.90
16198;DHT22;8206;51.440;6.914;2022-09-17T09:56:32;15.50;99.90
16198;DHT22;8206;51.440;6.914;2022-09-17T09:59:06;15.20;99.90
16198;DHT22;8206;51.440;6.914;2022-09-17T10:01:35;14.70;99.90
16198;DHT22;8206;51.440;6.914;2022-09-17T10:04:15;14.70;99.90
16198;DHT22;8206;51.440;6.914;2022-09-17T10:06:41;14.70;99.90
16198;DHT22;8206;51.440;6.914;2022-09-17T10:09:10;14.50;99.90
16198;DHT22;8206;51.440;6.914;2022-09-17T10:11:38;14.30;99.90
16198;DHT22;8206;51.440;6.914;2022-09-17T10:14:20;14.20;99.90
16198;DHT22;8206;51.440;6.914;2022-09-17T10:16:48;14.20;99.90
16198;DHT22;8206;51.440;6.914;2022-09-17T10:19:20;14.10;99.90
16198;DHT22;8206;51.440;6.914;2022-09-17T10:21:50;14.10;99.90
16198;DHT22;8206;51.440;6.914;2022-09-17T10:24:23;14.30;99.90
16198;DHT22;8206;51.440;6.914;2022-09-17T10:26:51;14.70;99.90
16198;DHT22;8206;51.440;6.914;2022-09-17T10:29:19;15.20;99.90
16198;DHT22;8206;51.440;6.914;2022-09-17T10:31:47;15.30;99.90
16198;DHT22;8206;51.440;6.914;2022-09-17T10:34:24;15.10;99.90
16198;DHT22;8206;51.440;6.914;2022-09-17T10:36:52;15.10;99.90
16198;DHT22;8206;51.440;6.914;2022-09-17T10:39:29;15.50;99.90
16198;DHT22;8206;51.440;6.914;2022-09-17T10:41:58;15.90;99.90
16198;DHT22;8206;51.440;6.914;2022-09-17T10:44:27;16.20;99.90
16198;DHT22;8206;51.440;6.914;2022-09-17T10:47:04;16.40;99.90
16198;DHT22;8206;51.440;6.914;2022-09-17T10:49:37;16.80;99.90
16198;DHT22;8206;51.440;6.914;2022-09-17T10:52:09;17.00;99.90
16198;DHT22;8206;51.440;6.914;2022-09-17T10:54:49;16.90;99.90
16198;DHT22;8206;51.440;6.914;2022-09-17T10:57:26;16.30;99.90
16198;DHT22;8206;51.440;6.914;2022-09-17T11:00:07;15.90;99.90
16198;DHT22;8206;51.440;6.914;2022-09-17T11:03:03;15.70;99.90
16198;DHT22;8206;51.440;6.914;2022-09-17T11:05:54;15.90;99.90
16198;DHT22;8206;51.440;6.914;2022-09-17T11:08:30;15.80;99.90
16198;DHT22;8206;51.440;6.914;2022-09-17T11:11:04;15.00;99.90
16198;DHT22;8206;51.440;6.914;2022-09-17T11:13:39;14.00;99.90
16198;DHT22;8206;51.440;6.914;2022-09-17T11:16:19;13.10;99.90
16198;DHT22;8206;51.440;6.914;2022-09-17T11:18:58;12.70;99.90
16198;DHT22;8206;51.440;6.914;2022-09-17T11:21:44;12.30;99.90
16198;DHT22;8206;51.440;6.914;2022-09-17T11:24:41;12.00;99.90
16198;DHT22;8206;51.440;6.914;2022-09-17T11:27:26;12.10;99.90
16198;DHT22;8206;51.440;6.914;2022-09-17T11:30:04;12.40;99.90
16198;DHT22;8206;51.440;6.914;2022-09-17T11:32:47;12.30;99.90
16198;DHT22;8206;51.440;6.914;2022-09-17T11:35:17;12.20;99.90
16198;DHT22;8206;51.440;6.914;2022-09-17T11:37:50;12.10;1.00
16198;DHT22;8206;51.440;6.914;2022-09-17T11:40:21;11.90;1.00
16198;DHT22;8206;51.440;6.914;2022-09-17T11:42:53;11.80;1.00
16198;DHT22;8206;51.440;6.914;2022-09-17T11:45:24;11.90;1.00
16198;DHT22;8206;51.440;6.914;2022-09-17T11:47:57;12.30;1.00
16198;DHT22;8206;51.440;6.914;2022-09-17T11:50:28;12.70;1.00
16198;DHT22;8206;51.440;6.914;2022-09-17T11:53:05;12.80;99.90
16198;DHT22;8206;51.440;6.914;2022-09-17T11:55:38;12.60;99.90
16198;DHT22;8206;51.440;6.914;2022-09-17T11:58:13;12.40;1.00
16198;DHT22;8206;51.440;6.914;2022-09-17T12:00:45;12.20;1.00
16198;DHT22;8206;51.440;6.914;2022-09-17T12:03:17;12.30;1.00
16198;DHT22;8206;51.440;6.914;2022-09-17T12:05:50;12.50;1.00
16198;DHT22;8206;51.440;6.914;2022-09-17T12:08:21;12.60;1.00
16198;DHT22;8206;51.440;6.914;2022-09-17T12:10:53;12.90;1.00
16198;DHT22;8206;51.440;6.914;2022-09-17T12:13:31;13.10;1.00
16198;DHT22;8206;51.440;6.914;2022-09-17T12:16:06;13.40;1.00
16198;DHT22;8206;51.440;6.914;2022-09-17T12:18:45;13.60;99.90
16198;DHT22;8206;51.440;6.914;2022-09-17T12:21:20;13.40;99.90
16198;DHT22;8206;51.440;6.914;2022-09-17T12:23:53;13.30;1.00
16198;DHT22;8206;51.440;6.914;2022-09-17T12:26:31;13.00;1.00
16198;DHT22;8206;51.440;6.914;2022-09-17T12:29:04;12.70;1.00
16198;DHT22;8206;51.440;6.914;2022-09-17T12:31:39;12.60;1.00
16198;DHT22;8206;51.440;6.914;2022-09-17T12:34:22;12.60;1.00
16198;DHT22;8206;51.440;6.914;2022-09-17T12:36:56;12.70;1.00
16198;DHT22;8206;51.440;6.914;2022-09-17T12:42:39;13.00;1.00
16198;DHT22;8206;51.440;6.914;2022-09-17T12:45:25;13.00;1.00
16198;DHT22;8206;51.440;6.914;2022-09-17T12:50:50;12.80;1.00
16198;DHT22;8206;51.440;6.914;2022-09-17T12:53:25;12.70;1.00
16198;DHT22;8206;51.440;6.914;2022-09-17T12:56:07;12.70;1.00
16198;DHT22;8206;51.440;6.914;2022-09-17T12:58:54;12.90;1.00
16198;DHT22;8206;51.440;6.914;2022-09-17T13:01:29;12.80;1.00
16198;DHT22;8206;51.440;6.914;2022-09-17T13:04:03;12.90;1.00
16198;DHT22;8206;51.440;6.914;2022-09-17T13:07:05;13.00;1.00
16198;DHT22;8206;51.440;6.914;2022-09-17T13:09:50;13.10;1.00
16198;DHT22;8206;51.440;6.914;2022-09-17T13:12:25;13.20;1.00
16198;DHT22;8206;51.440;6.914;2022-09-17T13:15:33;13.30;1.00
16198;DHT22;8206;51.440;6.914;2022-09-17T13:18:07;13.40;1.00
16198;DHT22;8206;51.440;6.914;2022-09-17T13:20:41;13.50;99.90
16198;DHT22;8206;51.440;6.914;2022-09-17T13:23:09;13.70;99.90
16198;DHT22;8206;51.440;6.914;2022-09-17T13:25:49;13.80;1.00
16198;DHT22;8206;51.440;6.914;2022-09-17T13:28:18;14.10;99.90
16198;DHT22;8206;51.440;6.914;2022-09-17T13:30:56;14.30;99.90
16198;DHT22;8206;51.440;6.914;2022-09-17T13:33:48;14.50;99.90
16198;DHT22;8206;51.440;6.914;2022-09-17T13:36:40;14.40;99.90
16198;DHT22;8206;51.440;6.914;2022-09-17T13:39:10;14.20;99.90
16198;DHT22;8206;51.440;6.914;2022-09-17T13:41:40;14.00;99.90
16198;DHT22;8206;51.440;6.914;2022-09-17T13:44:09;13.80;99.90
16198;DHT22;8206;51.440;6.914;2022-09-17T13:46:37;13.40;99.90
16198;DHT22;8206;51.440;6.914;2022-09-17T13:49:12;12.30;99.90
16198;DHT22;8206;51.440;6.914;2022-09-17T13:51:57;11.50;1.00
16198;DHT22;8206;51.440;6.914;2022-09-17T13:54:36;11.10;1.00
16198;DHT22;8206;51.440;6.914;2022-09-17T13:57:08;11.10;1.00
16198;DHT22;8206;51.440;6.914;2022-09-17T13:59:37;11.10;1.00
16198;DHT22;8206;51.440;6.914;2022-09-17T14:02:33;11.20;1.00
16198;DHT22;8206;51.440;6.914;2022-09-17T14:05:34;11.40;1.00
16198;DHT22;8206;51.440;6.914;2022-09-17T14:08:26;11.50;1.00
16198;DHT22;8206;51.440;6.914;2022-09-17T14:11:00;11.70;1.00
16198;DHT22;8206;51.440;6.914;2022-09-17T14:13:42;11.90;1.00
16198;DHT22;8206;51.440;6.914;2022-09-17T14:16:33;12.00;1.00
16198;DHT22;8206;51.440;6.914;2022-09-17T14:19:04;12.10;1.00
16198;DHT22;8206;51.440;6.914;2022-09-17T14:21:44;12.10;1.00
16198;DHT22;8206;51.440;6.914;2022-09-17T14:24:23;12.20;1.00
16198;DHT22;8206;51.440;6.914;2022-09-17T14:27:14;12.40;1.00
16198;DHT22;8206;51.440;6.914;2022-09-17T14:30:11;12.50;1.00
16198;DHT22;8206;51.440;6.914;2022-09-17T14:32:47;12.70;1.00
16198;DHT22;8206;51.440;6.914;2022-09-17T14:35:20;13.00;1.00
16198;DHT22;8206;51.440;6.914;2022-09-17T14:37:51;13.20;1.00
16198;DHT22;8206;51.440;6.914;2022-09-17T14:40:21;13.30;1.00
16198;DHT22;8206;51.440;6.914;2022-09-17T14:42:50;13.30;1.00
16198;DHT22;8206;51.440;6.914;2022-09-17T14:45:23;13.50;1.00
16198;DHT22;8206;51.440;6.914;2022-09-17T14:48:17;13.50;1.00
16198;DHT22;8206;51.440;6.914;2022-09-17T14:50:45;13.40;1.00
16198;DHT22;8206;51.440;6.914;2022-09-17T14:53:15;13.20;1.00
16198;DHT22;8206;51.440;6.914;2022-09-17T14:55:43;13.10;1.00
16198;DHT22;8206;51.440;6.914;2022-09-17T14:58:26;12.90;1.00
16198;DHT22;8206;51.440;6.914;2022-09-17T15:00:54;12.70;1.00
16198;DHT22;8206;51.440;6.914;2022-09-17T15:03:24;12.70;1.00
16198;DHT22;8206;51.440;6.914;2022-09-17T15:05:51;12.50;1.00
16198;DHT22;8206;51.440;6.914;2022-09-17T15:08:19;12.60;1.00
16198;DHT22;8206;51.440;6.914;2022-09-17T15:10:49;12.50;1.00
16198;DHT22;8206;51.440;6.914;2022-09-17T15:13:19;12.50;1.00
16198;DHT22;8206;51.440;6.914;2022-09-17T15:15:52;12.50;99.90
16198;DHT22;8206;51.440;6.914;2022-09-17T15:18:20;12.70;99.90
16198;DHT22;8206;51.440;6.914;2022-09-17T15:20:50;12.70;99.90
16198;DHT22;8206;51.440;6.914;2022-09-17T15:23:22;12.80;99.90
16198;DHT22;8206;51.440;6.914;2022-09-17T15:25:52;12.90;99.90
16198;DHT22;8206;51.440;6.914;2022-09-17T15:28:26;13.00;99.90
16198;DHT22;8206;51.440;6.914;2022-09-17T15:30:54;13.10;99.90
16198;DHT22;8206;51.440;6.914;2022-09-17T15:33:21;13.30;99.90
16198;DHT22;8206;51.440;6.914;2022-09-17T15:36:06;13.70;99.90
16198;DHT22;8206;51.440;6.914;2022-09-17T15:38:35;14.00;99.90
16198;DHT22;8206;51.440;6.914;2022-09-17T15:41:26;14.30;99.90
16198;DHT22;8206;51.440;6.914;2022-09-17T15:43:53;14.50;99.90
16198;DHT22;8206;51.440;6.914;2022-09-17T15:46:22;14.40;99.90
16198;DHT22;8206;51.440;6.914;2022-09-17T15:48:51;14.30;99.90
16198;DHT22;8206;51.440;6.914;2022-09-17T15:51:25;13.90;99.90
16198;DHT22;8206;51.440;6.914;2022-09-17T15:53:53;13.50;99.90
16198;DHT22;8206;51.440;6.914;2022-09-17T15:56:23;13.00;99.90
16198;DHT22;8206;51.440;6.914;2022-09-17T15:58:53;12.50;99.90
16198;DHT22;8206;51.440;6.914;2022-09-17T16:04:25;12.00;1.00
16198;DHT22;8206;51.440;6.914;2022-09-17T16:06:59;11.70;1.00
16198;DHT22;8206;51.440;6.914;2022-09-17T16:09:43;11.40;1.00
16198;DHT22;8206;51.440;6.914;2022-09-17T16:12:13;11.10;1.00
16198;DHT22;8206;51.440;6.914;2022-09-17T16:14:46;10.90;1.00
16198;DHT22;8206;51.440;6.914;2022-09-17T16:17:41;10.60;1.00
16198;DHT22;8206;51.440;6.914;2022-09-17T16:20:14;10.60;1.00
16198;DHT22;8206;51.440;6.914;2022-09-17T16:22:43;10.70;1.00
16198;DHT22;8206;51.440;6.914;2022-09-17T16:25:12;10.80;1.00
16198;DHT22;8206;51.440;6.914;2022-09-17T16:27:45;10.90;1.00
16198;DHT22;8206;51.440;6.914;2022-09-17T16:30:14;11.10;1.00
16198;DHT22;8206;51.440;6.914;2022-09-17T16:32:42;11.30;1.00
16198;DHT22;8206;51.440;6.914;2022-09-17T16:35:11;11.40;1.00
16198;DHT22;8206;51.440;6.914;2022-09-17T16:37:38;11.40;1.00